Rio Vista Municipal (O88)
Rio Vista, CA
Field Elevation: 22
Lat: 38°11.60N  Long: 121°42.22W
CTAF/Unicom Freq: 122.7250
   
     For Weather-by-Phone, call (707) 374-5396
Weather Advisories
2018-05-24   11:26 Z
Altimeter 29.96" Hg
Wind 230° @ 14 KT
Gusts 19 KT
Visibility 10 SM
Ceiling CLR
Temperature 12° C (54° F)
Dewpoint 9° C (48° F)
Relative Humidity 83%
Density Altitude --
Condensation Altitude 1,400 feet
Wind and Runways
Indicated Runway = 25
Headwind = 13 kt
Crosswind = 5 kt
History
 
 
 
More Info
All DigiWx sites map
NOAA Forecast
 
Airport IQ 5010
(DUC) Stack Farm
(CA37) Dominican
 
about DigiWx
 
FAA Disclaimer: The data displayed is for advisory purposes only and is not to be used for flight planning or operations. For official data, please call (707) 374-5396 to hear the current automated AWOS voice message.
  METAR O88 241126Z AUTO 23014G19KT VIS 10 SM CLR 12/09 A2996